sensor_id;sensor_type;location;lat;lon;timestamp;P1;durP1;ratioP1;P2;durP2;ratioP2
8349;SDS011;60699;48.946;8.412;2023-11-18T00:02:25;7.50;;;5.40;;
8349;SDS011;60699;48.946;8.412;2023-11-18T00:04:54;4.95;;;4.50;;
8349;SDS011;60699;48.946;8.412;2023-11-18T00:07:21;5.57;;;4.57;;
8349;SDS011;60699;48.946;8.412;2023-11-18T00:09:48;4.63;;;3.75;;
8349;SDS011;60699;48.946;8.412;2023-11-18T00:12:15;6.13;;;4.78;;
8349;SDS011;60699;48.946;8.412;2023-11-18T00:14:42;5.93;;;5.22;;
8349;SDS011;60699;48.946;8.412;2023-11-18T00:17:10;6.85;;;5.13;;
8349;SDS011;60699;48.946;8.412;2023-11-18T00:19:38;4.80;;;4.30;;
8349;SDS011;60699;48.946;8.412;2023-11-18T00:22:08;5.85;;;4.90;;
8349;SDS011;60699;48.946;8.412;2023-11-18T00:24:36;6.18;;;5.28;;
8349;SDS011;60699;48.946;8.412;2023-11-18T00:27:03;6.45;;;4.70;;
8349;SDS011;60699;48.946;8.412;2023-11-18T00:29:31;5.10;;;4.55;;
8349;SDS011;60699;48.946;8.412;2023-11-18T00:31:58;4.40;;;4.00;;
8349;SDS011;60699;48.946;8.412;2023-11-18T00:34:26;5.88;;;5.30;;
8349;SDS011;60699;48.946;8.412;2023-11-18T00:36:54;6.35;;;4.78;;
8349;SDS011;60699;48.946;8.412;2023-11-18T00:39:23;4.75;;;4.10;;
8349;SDS011;60699;48.946;8.412;2023-11-18T00:41:51;5.80;;;5.22;;
8349;SDS011;60699;48.946;8.412;2023-11-18T00:44:19;5.85;;;4.30;;
8349;SDS011;60699;48.946;8.412;2023-11-18T00:46:46;4.45;;;4.05;;
8349;SDS011;60699;48.946;8.412;2023-11-18T00:49:13;5.88;;;4.40;;
8349;SDS011;60699;48.946;8.412;2023-11-18T00:51:41;4.35;;;3.95;;
8349;SDS011;60699;48.946;8.412;2023-11-18T00:54:08;4.70;;;4.30;;
8349;SDS011;60699;48.946;8.412;2023-11-18T00:56:38;5.80;;;4.60;;
8349;SDS011;60699;48.946;8.412;2023-11-18T00:59:05;4.82;;;4.22;;
8349;SDS011;60699;48.946;8.412;2023-11-18T01:01:32;4.93;;;4.53;;
8349;SDS011;60699;48.946;8.412;2023-11-18T01:03:59;4.05;;;3.72;;
8349;SDS011;60699;48.946;8.412;2023-11-18T01:06:26;5.72;;;4.50;;
8349;SDS011;60699;48.946;8.412;2023-11-18T01:08:53;6.80;;;4.63;;
8349;SDS011;60699;48.946;8.412;2023-11-18T01:11:20;4.07;;;3.78;;
8349;SDS011;60699;48.946;8.412;2023-11-18T01:13:49;4.78;;;4.20;;
8349;SDS011;60699;48.946;8.412;2023-11-18T01:16:16;4.85;;;4.45;;
8349;SDS011;60699;48.946;8.412;2023-11-18T01:18:44;4.72;;;4.32;;
8349;SDS011;60699;48.946;8.412;2023-11-18T01:21:11;4.25;;;3.85;;
8349;SDS011;60699;48.946;8.412;2023-11-18T01:23:39;5.47;;;4.20;;
8349;SDS011;60699;48.946;8.412;2023-11-18T01:26:10;4.68;;;3.60;;
8349;SDS011;60699;48.946;8.412;2023-11-18T01:28:38;5.13;;;3.70;;
8349;SDS011;60699;48.946;8.412;2023-11-18T01:31:09;5.57;;;5.05;;
8349;SDS011;60699;48.946;8.412;2023-11-18T01:33:36;5.18;;;3.70;;
8349;SDS011;60699;48.946;8.412;2023-11-18T01:36:05;4.13;;;3.70;;
8349;SDS011;60699;48.946;8.412;2023-11-18T01:38:33;3.95;;;3.65;;
8349;SDS011;60699;48.946;8.412;2023-11-18T01:41:00;5.40;;;4.50;;
8349;SDS011;60699;48.946;8.412;2023-11-18T01:43:28;8.32;;;4.43;;
8349;SDS011;60699;48.946;8.412;2023-11-18T01:45:56;5.72;;;4.65;;
8349;SDS011;60699;48.946;8.412;2023-11-18T01:48:28;4.47;;;3.85;;
8349;SDS011;60699;48.946;8.412;2023-11-18T01:50:55;3.72;;;3.42;;
8349;SDS011;60699;48.946;8.412;2023-11-18T01:53:23;3.90;;;3.58;;
8349;SDS011;60699;48.946;8.412;2023-11-18T01:55:50;4.13;;;3.78;;
8349;SDS011;60699;48.946;8.412;2023-11-18T01:58:18;4.65;;;3.88;;
8349;SDS011;60699;48.946;8.412;2023-11-18T02:00:48;4.35;;;3.75;;
8349;SDS011;60699;48.946;8.412;2023-11-18T02:03:17;5.82;;;4.25;;
8349;SDS011;60699;48.946;8.412;2023-11-18T02:05:46;4.88;;;4.00;;
8349;SDS011;60699;48.946;8.412;2023-11-18T02:08:13;3.78;;;3.47;;
8349;SDS011;60699;48.946;8.412;2023-11-18T02:10:44;4.80;;;4.05;;
8349;SDS011;60699;48.946;8.412;2023-11-18T02:13:13;3.58;;;3.28;;
8349;SDS011;60699;48.946;8.412;2023-11-18T02:15:45;4.63;;;3.70;;
8349;SDS011;60699;48.946;8.412;2023-11-18T02:18:12;4.78;;;3.08;;
8349;SDS011;60699;48.946;8.412;2023-11-18T02:20:39;4.63;;;4.18;;
8349;SDS011;60699;48.946;8.412;2023-11-18T02:23:08;3.63;;;3.20;;
8349;SDS011;60699;48.946;8.412;2023-11-18T02:25:40;4.70;;;3.85;;
8349;SDS011;60699;48.946;8.412;2023-11-18T02:28:09;4.03;;;3.58;;
8349;SDS011;60699;48.946;8.412;2023-11-18T02:30:37;3.28;;;3.08;;
8349;SDS011;60699;48.946;8.412;2023-11-18T02:33:07;4.05;;;3.70;;
8349;SDS011;60699;48.946;8.412;2023-11-18T02:35:41;4.18;;;3.78;;
8349;SDS011;60699;48.946;8.412;2023-11-18T02:38:13;4.05;;;3.45;;
8349;SDS011;60699;48.946;8.412;2023-11-18T02:40:42;4.68;;;4.28;;
8349;SDS011;60699;48.946;8.412;2023-11-18T02:43:10;4.43;;;3.70;;
8349;SDS011;60699;48.946;8.412;2023-11-18T02:45:37;4.40;;;4.00;;
8349;SDS011;60699;48.946;8.412;2023-11-18T02:48:06;4.05;;;3.38;;
8349;SDS011;60699;48.946;8.412;2023-11-18T02:50:33;5.30;;;4.80;;
8349;SDS011;60699;48.946;8.412;2023-11-18T02:53:00;4.20;;;3.80;;
8349;SDS011;60699;48.946;8.412;2023-11-18T02:55:28;3.90;;;3.60;;
8349;SDS011;60699;48.946;8.412;2023-11-18T02:57:57;3.80;;;3.60;;
8349;SDS011;60699;48.946;8.412;2023-11-18T03:00:24;4.13;;;3.67;;
8349;SDS011;60699;48.946;8.412;2023-11-18T03:02:51;6.00;;;4.18;;
8349;SDS011;60699;48.946;8.412;2023-11-18T03:05:18;5.32;;;4.90;;
8349;SDS011;60699;48.946;8.412;2023-11-18T03:07:45;5.00;;;4.50;;
8349;SDS011;60699;48.946;8.412;2023-11-18T03:10:15;4.50;;;3.95;;
8349;SDS011;60699;48.946;8.412;2023-11-18T03:12:46;4.72;;;3.85;;
8349;SDS011;60699;48.946;8.412;2023-11-18T03:15:14;5.57;;;4.05;;
8349;SDS011;60699;48.946;8.412;2023-11-18T03:17:43;4.22;;;3.42;;
8349;SDS011;60699;48.946;8.412;2023-11-18T03:20:10;5.03;;;4.28;;
8349;SDS011;60699;48.946;8.412;2023-11-18T03:22:40;4.63;;;3.75;;
8349;SDS011;60699;48.946;8.412;2023-11-18T03:25:08;4.95;;;4.13;;
8349;SDS011;60699;48.946;8.412;2023-11-18T03:27:35;4.70;;;4.30;;
8349;SDS011;60699;48.946;8.412;2023-11-18T03:30:03;5.28;;;4.68;;
8349;SDS011;60699;48.946;8.412;2023-11-18T03:32:32;5.80;;;4.10;;
8349;SDS011;60699;48.946;8.412;2023-11-18T03:35:00;7.07;;;4.65;;
8349;SDS011;60699;48.946;8.412;2023-11-18T03:37:27;4.55;;;4.18;;
8349;SDS011;60699;48.946;8.412;2023-11-18T03:39:54;4.25;;;3.60;;
8349;SDS011;60699;48.946;8.412;2023-11-18T03:42:21;3.88;;;3.58;;
8349;SDS011;60699;48.946;8.412;2023-11-18T03:44:48;4.90;;;4.35;;
8349;SDS011;60699;48.946;8.412;2023-11-18T03:47:15;4.20;;;3.80;;
8349;SDS011;60699;48.946;8.412;2023-11-18T03:49:43;4.35;;;3.60;;
8349;SDS011;60699;48.946;8.412;2023-11-18T03:52:10;6.22;;;3.65;;
8349;SDS011;60699;48.946;8.412;2023-11-18T03:54:38;2.95;;;2.75;;
8349;SDS011;60699;48.946;8.412;2023-11-18T03:57:06;4.25;;;3.85;;
8349;SDS011;60699;48.946;8.412;2023-11-18T03:59:33;4.05;;;3.65;;
8349;SDS011;60699;48.946;8.412;2023-11-18T04:02:00;3.50;;;3.20;;
8349;SDS011;60699;48.946;8.412;2023-11-18T04:04:28;4.07;;;3.63;;
8349;SDS011;60699;48.946;8.412;2023-11-18T04:06:57;4.80;;;4.43;;
8349;SDS011;60699;48.946;8.412;2023-11-18T04:09:26;4.60;;;3.85;;
8349;SDS011;60699;48.946;8.412;2023-11-18T04:11:53;3.55;;;3.22;;
8349;SDS011;60699;48.946;8.412;2023-11-18T04:14:21;5.75;;;4.20;;
8349;SDS011;60699;48.946;8.412;2023-11-18T04:16:49;5.07;;;4.18;;
8349;SDS011;60699;48.946;8.412;2023-11-18T04:19:16;3.80;;;3.50;;
8349;SDS011;60699;48.946;8.412;2023-11-18T04:21:43;3.97;;;3.55;;
8349;SDS011;60699;48.946;8.412;2023-11-18T04:24:14;3.72;;;3.40;;
8349;SDS011;60699;48.946;8.412;2023-11-18T04:26:41;4.30;;;3.50;;
8349;SDS011;60699;48.946;8.412;2023-11-18T04:29:08;7.07;;;4.68;;
8349;SDS011;60699;48.946;8.412;2023-11-18T04:31:35;4.88;;;4.28;;
8349;SDS011;60699;48.946;8.412;2023-11-18T04:34:03;4.40;;;3.97;;
8349;SDS011;60699;48.946;8.412;2023-11-18T04:36:30;4.63;;;4.22;;
8349;SDS011;60699;48.946;8.412;2023-11-18T04:38:57;5.03;;;4.47;;
8349;SDS011;60699;48.946;8.412;2023-11-18T04:41:26;5.50;;;4.68;;
8349;SDS011;60699;48.946;8.412;2023-11-18T04:43:54;5.15;;;4.65;;
8349;SDS011;60699;48.946;8.412;2023-11-18T04:46:21;6.82;;;4.70;;
8349;SDS011;60699;48.946;8.412;2023-11-18T04:48:48;4.45;;;4.03;;
8349;SDS011;60699;48.946;8.412;2023-11-18T04:51:15;6.22;;;4.55;;
8349;SDS011;60699;48.946;8.412;2023-11-18T04:53:42;4.80;;;4.38;;
8349;SDS011;60699;48.946;8.412;2023-11-18T04:56:10;7.18;;;6.57;;
8349;SDS011;60699;48.946;8.412;2023-11-18T04:58:39;5.80;;;4.70;;
8349;SDS011;60699;48.946;8.412;2023-11-18T05:01:06;7.07;;;5.22;;
8349;SDS011;60699;48.946;8.412;2023-11-18T05:03:34;4.72;;;3.88;;
8349;SDS011;60699;48.946;8.412;2023-11-18T05:06:01;4.47;;;3.95;;
8349;SDS011;60699;48.946;8.412;2023-11-18T05:08:29;4.32;;;3.88;;
8349;SDS011;60699;48.946;8.412;2023-11-18T05:10:58;4.60;;;4.20;;
8349;SDS011;60699;48.946;8.412;2023-11-18T05:13:25;7.88;;;5.55;;
8349;SDS011;60699;48.946;8.412;2023-11-18T05:15:54;9.63;;;4.97;;
8349;SDS011;60699;48.946;8.412;2023-11-18T05:18:21;5.13;;;4.72;;
8349;SDS011;60699;48.946;8.412;2023-11-18T05:20:48;7.20;;;5.25;;
8349;SDS011;60699;48.946;8.412;2023-11-18T05:23:15;8.13;;;5.60;;
8349;SDS011;60699;48.946;8.412;2023-11-18T05:25:42;9.00;;;5.90;;
8349;SDS011;60699;48.946;8.412;2023-11-18T05:28:09;6.30;;;5.45;;
8349;SDS011;60699;48.946;8.412;2023-11-18T05:30:37;5.57;;;4.63;;
8349;SDS011;60699;48.946;8.412;2023-11-18T05:33:05;9.07;;;5.35;;
8349;SDS011;60699;48.946;8.412;2023-11-18T05:35:34;6.70;;;5.32;;
8349;SDS011;60699;48.946;8.412;2023-11-18T05:38:01;7.45;;;5.30;;
8349;SDS011;60699;48.946;8.412;2023-11-18T05:40:28;5.88;;;5.20;;
8349;SDS011;60699;48.946;8.412;2023-11-18T05:42:55;6.72;;;6.00;;
8349;SDS011;60699;48.946;8.412;2023-11-18T05:45:23;6.25;;;5.40;;
8349;SDS011;60699;48.946;8.412;2023-11-18T05:47:56;8.30;;;5.75;;
8349;SDS011;60699;48.946;8.412;2023-11-18T05:50:25;8.75;;;6.00;;
8349;SDS011;60699;48.946;8.412;2023-11-18T05:52:52;5.82;;;5.22;;
8349;SDS011;60699;48.946;8.412;2023-11-18T05:55:20;7.22;;;5.90;;
8349;SDS011;60699;48.946;8.412;2023-11-18T05:57:47;7.80;;;6.07;;
8349;SDS011;60699;48.946;8.412;2023-11-18T06:00:14;7.45;;;6.75;;
8349;SDS011;60699;48.946;8.412;2023-11-18T06:02:44;8.35;;;6.10;;
8349;SDS011;60699;48.946;8.412;2023-11-18T06:05:11;6.35;;;5.50;;
8349;SDS011;60699;48.946;8.412;2023-11-18T06:07:40;7.25;;;6.10;;
8349;SDS011;60699;48.946;8.412;2023-11-18T06:10:08;6.72;;;6.13;;
8349;SDS011;60699;48.946;8.412;2023-11-18T06:12:37;6.75;;;5.93;;
8349;SDS011;60699;48.946;8.412;2023-11-18T06:15:06;5.90;;;5.30;;
8349;SDS011;60699;48.946;8.412;2023-11-18T06:17:35;5.07;;;4.60;;
8349;SDS011;60699;48.946;8.412;2023-11-18T06:20:03;7.97;;;5.10;;
8349;SDS011;60699;48.946;8.412;2023-11-18T06:22:31;7.70;;;4.53;;
8349;SDS011;60699;48.946;8.412;2023-11-18T06:24:59;8.93;;;5.50;;
8349;SDS011;60699;48.946;8.412;2023-11-18T06:27:27;5.32;;;4.68;;
8349;SDS011;60699;48.946;8.412;2023-11-18T06:29:54;5.00;;;4.50;;
8349;SDS011;60699;48.946;8.412;2023-11-18T06:32:21;6.00;;;4.57;;
8349;SDS011;60699;48.946;8.412;2023-11-18T06:34:50;5.13;;;4.03;;
8349;SDS011;60699;48.946;8.412;2023-11-18T06:37:18;5.75;;;4.38;;
8349;SDS011;60699;48.946;8.412;2023-11-18T06:39:46;3.95;;;3.35;;
8349;SDS011;60699;48.946;8.412;2023-11-18T06:42:15;5.90;;;3.80;;
8349;SDS011;60699;48.946;8.412;2023-11-18T06:44:42;3.17;;;2.97;;
8349;SDS011;60699;48.946;8.412;2023-11-18T06:47:09;4.40;;;3.95;;
8349;SDS011;60699;48.946;8.412;2023-11-18T06:49:37;4.55;;;3.33;;
8349;SDS011;60699;48.946;8.412;2023-11-18T06:52:06;3.50;;;3.20;;
8349;SDS011;60699;48.946;8.412;2023-11-18T06:54:36;3.40;;;3.15;;
8349;SDS011;60699;48.946;8.412;2023-11-18T06:57:03;3.10;;;2.80;;
8349;SDS011;60699;48.946;8.412;2023-11-18T06:59:33;4.75;;;3.50;;
8349;SDS011;60699;48.946;8.412;2023-11-18T07:02:00;4.40;;;3.55;;
8349;SDS011;60699;48.946;8.412;2023-11-18T07:04:29;5.00;;;3.50;;
8349;SDS011;60699;48.946;8.412;2023-11-18T07:06:56;3.95;;;3.65;;
8349;SDS011;60699;48.946;8.412;2023-11-18T07:09:23;3.25;;;2.95;;
8349;SDS011;60699;48.946;8.412;2023-11-18T07:11:51;3.80;;;3.45;;
8349;SDS011;60699;48.946;8.412;2023-11-18T07:14:18;4.10;;;3.22;;
8349;SDS011;60699;48.946;8.412;2023-11-18T07:16:46;3.70;;;3.40;;
8349;SDS011;60699;48.946;8.412;2023-11-18T07:19:13;4.72;;;3.53;;
8349;SDS011;60699;48.946;8.412;2023-11-18T07:21:44;4.35;;;3.95;;
8349;SDS011;60699;48.946;8.412;2023-11-18T07:24:11;4.50;;;4.10;;
8349;SDS011;60699;48.946;8.412;2023-11-18T07:26:38;4.85;;;4.00;;
8349;SDS011;60699;48.946;8.412;2023-11-18T07:29:05;5.47;;;4.97;;
8349;SDS011;60699;48.946;8.412;2023-11-18T07:31:33;4.32;;;3.97;;
8349;SDS011;60699;48.946;8.412;2023-11-18T07:34:04;3.53;;;3.17;;
8349;SDS011;60699;48.946;8.412;2023-11-18T07:36:31;4.20;;;3.80;;
8349;SDS011;60699;48.946;8.412;2023-11-18T07:38:58;4.93;;;4.38;;
8349;SDS011;60699;48.946;8.412;2023-11-18T07:41:27;5.13;;;4.50;;
8349;SDS011;60699;48.946;8.412;2023-11-18T07:43:56;6.13;;;3.67;;
8349;SDS011;60699;48.946;8.412;2023-11-18T07:46:23;4.30;;;3.90;;
8349;SDS011;60699;48.946;8.412;2023-11-18T07:48:50;4.97;;;4.10;;
8349;SDS011;60699;48.946;8.412;2023-11-18T07:51:19;4.05;;;3.20;;
8349;SDS011;60699;48.946;8.412;2023-11-18T07:53:46;4.45;;;3.28;;
8349;SDS011;60699;48.946;8.412;2023-11-18T07:56:14;3.67;;;3.33;;
8349;SDS011;60699;48.946;8.412;2023-11-18T07:58:41;4.63;;;3.22;;
8349;SDS011;60699;48.946;8.412;2023-11-18T08:01:10;5.53;;;3.60;;
8349;SDS011;60699;48.946;8.412;2023-11-18T08:03:37;6.55;;;4.50;;
8349;SDS011;60699;48.946;8.412;2023-11-18T08:06:06;3.22;;;3.03;;
8349;SDS011;60699;48.946;8.412;2023-11-18T08:08:34;4.47;;;3.88;;
8349;SDS011;60699;48.946;8.412;2023-11-18T08:11:03;6.90;;;4.53;;
8349;SDS011;60699;48.946;8.412;2023-11-18T08:13:30;4.68;;;3.83;;
8349;SDS011;60699;48.946;8.412;2023-11-18T08:15:57;6.32;;;4.50;;
8349;SDS011;60699;48.946;8.412;2023-11-18T08:18:24;5.10;;;4.70;;
8349;SDS011;60699;48.946;8.412;2023-11-18T08:20:52;5.25;;;4.75;;
8349;SDS011;60699;48.946;8.412;2023-11-18T08:23:20;10.52;;;6.80;;
8349;SDS011;60699;48.946;8.412;2023-11-18T08:25:48;7.88;;;7.00;;
8349;SDS011;60699;48.946;8.412;2023-11-18T08:28:15;9.30;;;8.13;;
8349;SDS011;60699;48.946;8.412;2023-11-18T08:30:43;9.00;;;6.72;;
8349;SDS011;60699;48.946;8.412;2023-11-18T08:33:10;9.45;;;6.03;;
8349;SDS011;60699;48.946;8.412;2023-11-18T08:35:37;8.90;;;6.80;;
8349;SDS011;60699;48.946;8.412;2023-11-18T08:38:05;11.75;;;7.60;;
8349;SDS011;60699;48.946;8.412;2023-11-18T08:40:32;9.35;;;6.55;;
8349;SDS011;60699;48.946;8.412;2023-11-18T08:43:03;9.85;;;6.75;;
8349;SDS011;60699;48.946;8.412;2023-11-18T08:45:32;9.40;;;6.88;;
8349;SDS011;60699;48.946;8.412;2023-11-18T08:48:00;10.30;;;8.00;;
8349;SDS011;60699;48.946;8.412;2023-11-18T08:50:29;7.05;;;6.25;;
8349;SDS011;60699;48.946;8.412;2023-11-18T08:52:56;8.88;;;6.43;;
8349;SDS011;60699;48.946;8.412;2023-11-18T08:55:23;11.07;;;7.20;;
8349;SDS011;60699;48.946;8.412;2023-11-18T08:58:05;10.05;;;6.60;;
8349;SDS011;60699;48.946;8.412;2023-11-18T09:00:41;8.10;;;6.40;;
8349;SDS011;60699;48.946;8.412;2023-11-18T09:03:18;9.60;;;6.43;;
8349;SDS011;60699;48.946;8.412;2023-11-18T09:05:50;9.68;;;6.22;;
8349;SDS011;60699;48.946;8.412;2023-11-18T09:08:24;7.85;;;6.55;;
8349;SDS011;60699;48.946;8.412;2023-11-18T09:10:52;12.13;;;6.93;;
8349;SDS011;60699;48.946;8.412;2023-11-18T09:13:21;10.13;;;6.20;;
8349;SDS011;60699;48.946;8.412;2023-11-18T09:15:49;10.13;;;7.43;;
8349;SDS011;60699;48.946;8.412;2023-11-18T09:18:16;9.90;;;6.70;;
8349;SDS011;60699;48.946;8.412;2023-11-18T09:20:44;9.23;;;6.65;;
8349;SDS011;60699;48.946;8.412;2023-11-18T09:23:12;7.40;;;5.82;;
8349;SDS011;60699;48.946;8.412;2023-11-18T09:25:40;8.80;;;7.25;;
8349;SDS011;60699;48.946;8.412;2023-11-18T09:28:11;8.57;;;5.82;;
8349;SDS011;60699;48.946;8.412;2023-11-18T09:30:41;9.13;;;6.75;;
8349;SDS011;60699;48.946;8.412;2023-11-18T09:33:15;10.38;;;6.80;;
8349;SDS011;60699;48.946;8.412;2023-11-18T09:35:50;8.10;;;6.45;;
8349;SDS011;60699;48.946;8.412;2023-11-18T09:38:17;12.05;;;7.50;;
8349;SDS011;60699;48.946;8.412;2023-11-18T09:40:44;12.05;;;7.35;;
8349;SDS011;60699;48.946;8.412;2023-11-18T09:43:14;9.73;;;6.88;;
8349;SDS011;60699;48.946;8.412;2023-11-18T09:45:44;8.50;;;6.30;;
8349;SDS011;60699;48.946;8.412;2023-11-18T09:48:12;9.32;;;6.25;;
8349;SDS011;60699;48.946;8.412;2023-11-18T09:50:42;5.85;;;5.30;;
8349;SDS011;60699;48.946;8.412;2023-11-18T09:53:12;5.35;;;4.70;;
8349;SDS011;60699;48.946;8.412;2023-11-18T09:55:43;5.70;;;5.03;;
8349;SDS011;60699;48.946;8.412;2023-11-18T09:58:13;6.00;;;5.25;;
8349;SDS011;60699;48.946;8.412;2023-11-18T10:00:42;7.20;;;5.20;;
8349;SDS011;60699;48.946;8.412;2023-11-18T10:03:10;11.55;;;5.63;;
8349;SDS011;60699;48.946;8.412;2023-11-18T10:05:40;5.75;;;4.90;;
8349;SDS011;60699;48.946;8.412;2023-11-18T10:08:08;7.57;;;5.22;;
8349;SDS011;60699;48.946;8.412;2023-11-18T10:10:35;4.95;;;4.30;;
8349;SDS011;60699;48.946;8.412;2023-11-18T10:13:03;5.93;;;5.35;;
8349;SDS011;60699;48.946;8.412;2023-11-18T10:15:33;5.40;;;4.72;;
8349;SDS011;60699;48.946;8.412;2023-11-18T10:18:02;7.38;;;4.32;;
8349;SDS011;60699;48.946;8.412;2023-11-18T10:20:44;4.32;;;3.83;;
8349;SDS011;60699;48.946;8.412;2023-11-18T10:23:11;6.25;;;3.63;;
8349;SDS011;60699;48.946;8.412;2023-11-18T10:25:41;3.88;;;3.47;;
8349;SDS011;60699;48.946;8.412;2023-11-18T10:28:20;4.13;;;3.80;;
8349;SDS011;60699;48.946;8.412;2023-11-18T10:30:48;3.65;;;3.35;;
8349;SDS011;60699;48.946;8.412;2023-11-18T10:33:15;4.07;;;3.75;;
8349;SDS011;60699;48.946;8.412;2023-11-18T10:35:51;4.40;;;4.00;;
8349;SDS011;60699;48.946;8.412;2023-11-18T10:38:20;4.43;;;4.13;;
8349;SDS011;60699;48.946;8.412;2023-11-18T10:40:50;4.68;;;3.85;;
8349;SDS011;60699;48.946;8.412;2023-11-18T10:43:17;5.03;;;4.53;;
8349;SDS011;60699;48.946;8.412;2023-11-18T10:45:44;6.35;;;4.25;;
8349;SDS011;60699;48.946;8.412;2023-11-18T10:48:12;5.10;;;4.57;;
8349;SDS011;60699;48.946;8.412;2023-11-18T10:50:41;5.15;;;4.07;;
8349;SDS011;60699;48.946;8.412;2023-11-18T10:53:10;9.63;;;4.53;;
8349;SDS011;60699;48.946;8.412;2023-11-18T10:55:41;9.55;;;5.47;;
8349;SDS011;60699;48.946;8.412;2023-11-18T10:58:09;8.35;;;5.60;;
8349;SDS011;60699;48.946;8.412;2023-11-18T11:00:46;9.80;;;6.82;;
8349;SDS011;60699;48.946;8.412;2023-11-18T11:03:13;7.15;;;5.63;;
8349;SDS011;60699;48.946;8.412;2023-11-18T11:05:40;5.32;;;4.53;;
8349;SDS011;60699;48.946;8.412;2023-11-18T11:08:09;5.88;;;5.28;;
8349;SDS011;60699;48.946;8.412;2023-11-18T11:10:39;6.43;;;5.40;;
8349;SDS011;60699;48.946;8.412;2023-11-18T11:13:07;6.07;;;5.32;;
8349;SDS011;60699;48.946;8.412;2023-11-18T11:15:39;6.18;;;5.43;;
8349;SDS011;60699;48.946;8.412;2023-11-18T11:18:10;6.47;;;5.88;;
8349;SDS011;60699;48.946;8.412;2023-11-18T11:20:41;12.25;;;6.60;;
8349;SDS011;60699;48.946;8.412;2023-11-18T11:23:11;6.80;;;5.57;;
8349;SDS011;60699;48.946;8.412;2023-11-18T11:25:47;7.75;;;6.30;;
8349;SDS011;60699;48.946;8.412;2023-11-18T11:28:20;9.32;;;5.60;;
8349;SDS011;60699;48.946;8.412;2023-11-18T11:30:50;9.00;;;6.13;;
8349;SDS011;60699;48.946;8.412;2023-11-18T11:33:19;10.23;;;6.50;;
8349;SDS011;60699;48.946;8.412;2023-11-18T11:35:48;6.63;;;5.88;;
8349;SDS011;60699;48.946;8.412;2023-11-18T11:38:22;7.78;;;6.50;;
8349;SDS011;60699;48.946;8.412;2023-11-18T11:40:50;9.52;;;7.20;;
8349;SDS011;60699;48.946;8.412;2023-11-18T11:43:20;9.15;;;5.80;;
8349;SDS011;60699;48.946;8.412;2023-11-18T11:45:47;6.95;;;5.72;;
8349;SDS011;60699;48.946;8.412;2023-11-18T11:48:16;11.75;;;8.10;;
8349;SDS011;60699;48.946;8.412;2023-11-18T11:51:05;10.00;;;6.63;;
8349;SDS011;60699;48.946;8.412;2023-11-18T11:53:39;6.10;;;5.40;;
8349;SDS011;60699;48.946;8.412;2023-11-18T11:56:11;6.15;;;5.63;;
8349;SDS011;60699;48.946;8.412;2023-11-18T11:58:46;5.90;;;5.07;;
8349;SDS011;60699;48.946;8.412;2023-11-18T12:01:25;5.75;;;5.25;;
8349;SDS011;60699;48.946;8.412;2023-11-18T12:03:57;5.40;;;4.88;;
8349;SDS011;60699;48.946;8.412;2023-11-18T12:06:32;6.13;;;5.25;;
8349;SDS011;60699;48.946;8.412;2023-11-18T12:09:00;10.55;;;6.13;;
8349;SDS011;60699;48.946;8.412;2023-11-18T12:11:33;7.80;;;5.20;;
8349;SDS011;60699;48.946;8.412;2023-11-18T12:14:02;6.20;;;5.15;;
8349;SDS011;60699;48.946;8.412;2023-11-18T12:19:29;7.40;;;4.65;;
8349;SDS011;60699;48.946;8.412;2023-11-18T12:21:57;6.05;;;4.35;;
8349;SDS011;60699;48.946;8.412;2023-11-18T12:24:25;6.00;;;5.38;;
8349;SDS011;60699;48.946;8.412;2023-11-18T12:26:55;5.50;;;4.40;;
8349;SDS011;60699;48.946;8.412;2023-11-18T12:29:32;10.10;;;4.95;;
8349;SDS011;60699;48.946;8.412;2023-11-18T12:31:59;5.03;;;4.03;;
8349;SDS011;60699;48.946;8.412;2023-11-18T12:37:17;6.38;;;3.88;;
8349;SDS011;60699;48.946;8.412;2023-11-18T12:39:57;4.63;;;4.20;;
8349;SDS011;60699;48.946;8.412;2023-11-18T12:45:26;3.90;;;3.55;;
8349;SDS011;60699;48.946;8.412;2023-11-18T12:47:57;8.65;;;4.22;;
8349;SDS011;60699;48.946;8.412;2023-11-18T12:50:36;4.00;;;3.70;;
8349;SDS011;60699;48.946;8.412;2023-11-18T12:53:04;7.13;;;4.80;;
8349;SDS011;60699;48.946;8.412;2023-11-18T12:55:31;5.07;;;4.55;;
8349;SDS011;60699;48.946;8.412;2023-11-18T12:57:59;4.25;;;3.85;;
8349;SDS011;60699;48.946;8.412;2023-11-18T13:00:29;7.32;;;4.38;;
8349;SDS011;60699;48.946;8.412;2023-11-18T13:02:59;5.30;;;3.80;;
8349;SDS011;60699;48.946;8.412;2023-11-18T13:05:26;6.32;;;4.10;;
8349;SDS011;60699;48.946;8.412;2023-11-18T13:07:55;3.92;;;3.63;;
8349;SDS011;60699;48.946;8.412;2023-11-18T13:10:22;4.72;;;4.18;;
8349;SDS011;60699;48.946;8.412;2023-11-18T13:12:52;5.10;;;4.32;;
8349;SDS011;60699;48.946;8.412;2023-11-18T13:15:19;4.30;;;3.90;;
8349;SDS011;60699;48.946;8.412;2023-11-18T13:18:01;5.25;;;4.00;;
8349;SDS011;60699;48.946;8.412;2023-11-18T13:20:32;4.40;;;3.67;;
8349;SDS011;60699;48.946;8.412;2023-11-18T13:23:00;4.30;;;3.90;;
8349;SDS011;60699;48.946;8.412;2023-11-18T13:25:33;4.00;;;3.60;;
8349;SDS011;60699;48.946;8.412;2023-11-18T13:28:03;5.63;;;4.70;;
8349;SDS011;60699;48.946;8.412;2023-11-18T13:30:31;4.05;;;3.75;;
8349;SDS011;60699;48.946;8.412;2023-11-18T13:32:58;4.97;;;4.30;;
8349;SDS011;60699;48.946;8.412;2023-11-18T13:35:26;6.80;;;4.28;;
8349;SDS011;60699;48.946;8.412;2023-11-18T13:37:53;4.32;;;3.92;;
8349;SDS011;60699;48.946;8.412;2023-11-18T13:40:22;6.50;;;4.75;;
8349;SDS011;60699;48.946;8.412;2023-11-18T13:43:00;5.07;;;4.32;;
8349;SDS011;60699;48.946;8.412;2023-11-18T13:45:30;4.78;;;4.28;;
8349;SDS011;60699;48.946;8.412;2023-11-18T13:47:59;5.60;;;4.18;;
8349;SDS011;60699;48.946;8.412;2023-11-18T13:50:28;4.63;;;3.40;;
8349;SDS011;60699;48.946;8.412;2023-11-18T13:52:55;4.25;;;3.90;;
8349;SDS011;60699;48.946;8.412;2023-11-18T13:55:23;4.50;;;4.10;;
8349;SDS011;60699;48.946;8.412;2023-11-18T13:57:53;4.47;;;4.07;;
8349;SDS011;60699;48.946;8.412;2023-11-18T14:00:22;5.03;;;4.57;;
8349;SDS011;60699;48.946;8.412;2023-11-18T14:02:51;3.63;;;3.33;;
8349;SDS011;60699;48.946;8.412;2023-11-18T14:05:18;4.70;;;4.30;;
8349;SDS011;60699;48.946;8.412;2023-11-18T14:07:51;4.85;;;4.18;;
8349;SDS011;60699;48.946;8.412;2023-11-18T14:10:20;4.90;;;4.10;;
8349;SDS011;60699;48.946;8.412;2023-11-18T14:12:58;6.05;;;4.30;;
8349;SDS011;60699;48.946;8.412;2023-11-18T14:15:26;9.65;;;5.13;;
8349;SDS011;60699;48.946;8.412;2023-11-18T14:17:53;4.85;;;4.35;;
8349;SDS011;60699;48.946;8.412;2023-11-18T14:20:20;6.35;;;5.50;;
8349;SDS011;60699;48.946;8.412;2023-11-18T14:22:50;9.02;;;5.10;;
8349;SDS011;60699;48.946;8.412;2023-11-18T14:25:17;5.32;;;4.78;;
8349;SDS011;60699;48.946;8.412;2023-11-18T14:27:44;6.05;;;5.55;;
8349;SDS011;60699;48.946;8.412;2023-11-18T14:30:13;5.53;;;4.95;;
8349;SDS011;60699;48.946;8.412;2023-11-18T14:32:41;5.30;;;4.40;;
8349;SDS011;60699;48.946;8.412;2023-11-18T14:35:08;4.22;;;3.70;;
8349;SDS011;60699;48.946;8.412;2023-11-18T14:37:37;6.68;;;6.07;;
8349;SDS011;60699;48.946;8.412;2023-11-18T14:40:08;5.72;;;5.20;;
8349;SDS011;60699;48.946;8.412;2023-11-18T14:42:38;4.65;;;4.25;;
8349;SDS011;60699;48.946;8.412;2023-11-18T14:45:06;4.90;;;4.43;;
8349;SDS011;60699;48.946;8.412;2023-11-18T14:47:33;8.15;;;4.78;;
8349;SDS011;60699;48.946;8.412;2023-11-18T14:50:00;4.82;;;4.40;;
8349;SDS011;60699;48.946;8.412;2023-11-18T14:52:31;4.40;;;4.00;;
8349;SDS011;60699;48.946;8.412;2023-11-18T14:54:58;5.95;;;4.55;;
8349;SDS011;60699;48.946;8.412;2023-11-18T14:57:27;5.25;;;4.72;;
8349;SDS011;60699;48.946;8.412;2023-11-18T14:59:54;6.55;;;4.82;;
8349;SDS011;60699;48.946;8.412;2023-11-18T15:02:21;7.15;;;5.22;;
8349;SDS011;60699;48.946;8.412;2023-11-18T15:04:50;6.43;;;5.28;;
8349;SDS011;60699;48.946;8.412;2023-11-18T15:07:17;6.50;;;4.70;;
8349;SDS011;60699;48.946;8.412;2023-11-18T15:09:44;5.05;;;4.53;;
8349;SDS011;60699;48.946;8.412;2023-11-18T15:12:13;4.50;;;4.10;;
8349;SDS011;60699;48.946;8.412;2023-11-18T15:14:42;6.15;;;4.50;;
8349;SDS011;60699;48.946;8.412;2023-11-18T15:17:10;7.65;;;4.55;;
8349;SDS011;60699;48.946;8.412;2023-11-18T15:19:38;5.25;;;4.43;;